Time;durP1;ratioP1;P1;durP2;ratioP2;P2;SDS_P1;SDS_P2;PMS_P1;PMS_P2;Temp;Humidity;BMP_temperature;BMP_pressure;BME280_temperature;BME280_humidity;BME280_pressure;Samples;Min_cycle;Max_cycle;Signal;HPM_P1;HPM_P2
2023/10/10 00:00:35;;;;;;;1.70;1.55;;;;;;;4.20;63.24;98868.03;4973543;28;20051;-62
2023/10/10 00:03:05;;;;;;;2.00;1.45;;;;;;;4.15;63.43;98860.44;4973376;28;20130;-61
2023/10/10 00:05:36;;;;;;;1.77;1.60;;;;;;;4.14;63.36;98863.19;4974077;28;20126;-61
2023/10/10 00:08:04;;;;;;;1.75;1.60;;;;;;;4.04;63.44;98860.31;4995453;28;20079;-60
2023/10/10 00:10:31;;;;;;;2.03;1.60;;;;;;;4.03;64.26;98869.22;4996397;28;20198;-61
2023/10/10 00:13:00;;;;;;;1.73;1.63;;;;;;;4.07;63.48;98864.56;4996399;28;20038;-61
2023/10/10 00:15:33;;;;;;;1.70;1.60;;;;;;;4.05;63.12;98854.06;4996750;28;20365;-62
2023/10/10 00:18:07;;;;;;;1.88;1.70;;;;;;;4.07;63.03;98873.34;4995006;28;20457;-61
2023/10/10 00:20:44;;;;;;;2.25;1.85;;;;;;;3.97;62.85;98867.00;4996315;28;20038;-63
2023/10/10 00:23:11;;;;;;;1.73;1.63;;;;;;;4.04;63.48;98873.56;4996457;28;20045;-62
2023/10/10 00:25:42;;;;;;;1.80;1.70;;;;;;;3.99;63.24;98865.09;4997274;28;20054;-62
2023/10/10 00:28:18;;;;;;;1.80;1.67;;;;;;;4.01;63.09;98873.78;4997132;28;20030;-61
2023/10/10 00:30:45;;;;;;;1.70;1.60;;;;;;;4.01;63.61;98876.41;4993805;28;20031;-63
2023/10/10 00:33:16;;;;;;;2.10;1.63;;;;;;;3.98;62.92;98860.75;4975174;28;20027;-64
2023/10/10 00:35:47;;;;;;;1.85;1.73;;;;;;;3.97;64.02;98877.59;4976465;28;20061;-61
2023/10/10 00:38:20;;;;;;;3.15;1.73;;;;;;;3.92;64.01;98877.91;4975753;28;20097;-66
2023/10/10 00:40:47;;;;;;;1.90;1.80;;;;;;;3.94;63.83;98877.81;4976561;28;20097;-61
2023/10/10 00:43:18;;;;;;;2.60;2.40;;;;;;;3.94;64.09;98883.09;4976615;28;20188;-67
2023/10/10 00:45:52;;;;;;;2.20;2.00;;;;;;;3.97;63.45;98885.53;4977280;28;20026;-63
2023/10/10 00:48:29;;;;;;;2.20;2.00;;;;;;;4.01;63.42;98885.22;4987866;28;20037;-61
2023/10/10 00:51:05;;;;;;;2.15;1.95;;;;;;;3.96;63.68;98884.66;4996019;28;20425;-61
2023/10/10 00:53:36;;;;;;;2.30;2.10;;;;;;;3.94;63.84;98889.22;4996100;28;20026;-61
2023/10/10 00:56:06;;;;;;;2.35;2.10;;;;;;;3.85;64.11;98874.81;4990753;28;20026;-62
2023/10/10 00:58:36;;;;;;;1.90;1.80;;;;;;;3.99;64.45;98886.28;4995637;28;20034;-61
2023/10/10 01:01:07;;;;;;;3.17;2.20;;;;;;;4.01;63.74;98885.22;4994254;28;20120;-62
2023/10/10 01:03:35;;;;;;;2.40;2.20;;;;;;;4.05;63.74;98885.84;4995456;28;20065;-62
2023/10/10 01:06:05;;;;;;;2.70;2.20;;;;;;;4.06;64.09;98892.84;4993873;28;20027;-63
2023/10/10 01:08:54;;;;;;;2.25;2.05;;;;;;;4.18;63.42;98892.97;4995958;28;20065;-61
2023/10/10 01:11:20;;;;;;;2.55;2.35;;;;;;;4.13;63.34;98894.13;4994438;28;20113;-62
2023/10/10 01:13:45;;;;;;;1.92;1.83;;;;;;;4.14;63.51;98889.66;4995346;28;20420;-63
2023/10/10 01:16:12;;;;;;;2.40;2.00;;;;;;;4.10;63.50;98886.41;4996028;28;20376;-62
2023/10/10 01:18:39;;;;;;;3.47;1.95;;;;;;;4.07;63.75;98891.06;4994398;28;20053;-60
2023/10/10 01:21:05;;;;;;;2.22;2.03;;;;;;;4.00;63.66;98883.53;4993647;28;20524;-61
2023/10/10 01:23:33;;;;;;;2.40;2.17;;;;;;;4.05;63.54;98892.97;4995542;28;20061;-61
2023/10/10 01:26:06;;;;;;;2.38;2.17;;;;;;;4.06;63.37;98898.13;4995096;28;20026;-61
2023/10/10 01:28:34;;;;;;;2.22;2.03;;;;;;;3.79;63.98;98858.53;4994265;28;20441;-61
2023/10/10 01:31:10;;;;;;;2.20;2.00;;;;;;;4.03;63.34;98903.66;4995285;28;20030;-61
2023/10/10 01:33:36;;;;;;;2.45;1.90;;;;;;;4.05;64.26;98901.75;4995609;28;20113;-63
2023/10/10 01:36:11;;;;;;;3.22;1.85;;;;;;;4.05;64.30;98909.69;4994135;28;20026;-61
2023/10/10 01:38:44;;;;;;;1.92;1.50;;;;;;;4.10;64.08;98904.94;4994908;28;20373;-62
2023/10/10 01:41:22;;;;;;;1.83;1.60;;;;;;;4.12;63.24;98908.34;4982435;28;20109;-61
2023/10/10 01:43:53;;;;;;;2.60;1.90;;;;;;;4.08;63.26;98906.81;4975738;28;20049;-61
2023/10/10 01:46:27;;;;;;;3.10;1.90;;;;;;;4.11;63.37;98919.03;4975626;28;20034;-62
2023/10/10 01:48:56;;;;;;;2.13;1.95;;;;;;;4.14;62.96;98924.97;4976138;28;20053;-61
2023/10/10 01:51:25;;;;;;;1.40;1.30;;;;;;;4.09;62.95;98913.81;4975986;28;20343;-61
2023/10/10 01:53:52;;;;;;;2.35;1.52;;;;;;;4.12;62.48;98921.59;4975651;28;20035;-61
2023/10/10 01:56:18;;;;;;;2.08;1.88;;;;;;;4.10;62.34;98910.25;4975246;28;20034;-64
2023/10/10 01:58:43;;;;;;;1.52;1.42;;;;;;;4.11;62.52;98917.25;4976180;28;20043;-62
2023/10/10 02:01:11;;;;;;;1.55;1.45;;;;;;;4.14;62.32;98919.66;4976388;28;20100;-61
2023/10/10 02:03:36;;;;;;;2.60;1.60;;;;;;;4.18;62.07;98927.41;4975493;28;20027;-61
2023/10/10 02:06:03;;;;;;;1.40;1.30;;;;;;;4.01;62.24;98910.84;4974889;28;20035;-62
2023/10/10 02:08:29;;;;;;;1.70;1.60;;;;;;;4.06;62.70;98914.03;4975060;28;20117;-62
2023/10/10 02:10:55;;;;;;;1.60;1.48;;;;;;;4.05;62.67;98919.44;4975391;28;20170;-61
2023/10/10 02:13:22;;;;;;;1.40;1.30;;;;;;;4.05;63.23;98914.97;4975474;28;20045;-61
2023/10/10 02:15:48;;;;;;;1.52;1.42;;;;;;;3.99;62.54;98912.75;4974648;28;20087;-63
2023/10/10 02:18:14;;;;;;;1.70;1.60;;;;;;;4.01;62.96;98921.44;4975950;28;20070;-61
2023/10/10 02:25:53;;;;;;;2.25;2.05;;;;;;;4.13;63.14;98930.34;4974008;28;20034;-61
2023/10/10 02:30:52;;;;;;;1.98;1.88;;;;;;;4.13;63.28;98930.34;4975537;28;20023;-61
2023/10/10 02:35:55;;;;;;;2.13;1.92;;;;;;;4.05;63.63;98933.53;4974814;28;20070;-61
2023/10/10 02:39:11;;;;;;;2.42;2.20;;;;;;;3.99;63.30;98928.66;4982619;28;20120;-63
2023/10/10 02:44:05;;;;;;;2.28;2.08;;;;;;;4.02;63.54;98933.75;4993813;28;20038;-61
2023/10/10 02:46:35;;;;;;;2.40;2.20;;;;;;;4.01;63.38;98932.03;4993851;28;20033;-61
2023/10/10 02:51:55;;;;;;;3.08;2.00;;;;;;;3.75;63.51;98902.03;4993778;28;20026;-68
2023/10/10 02:54:34;;;;;;;2.40;2.05;;;;;;;4.03;63.67;98946.03;4993238;28;20034;-65
2023/10/10 03:00:15;;;;;;;2.67;1.85;;;;;;;4.07;63.14;98936.91;4988780;28;20050;-60
2023/10/10 03:02:52;;;;;;;2.40;1.80;;;;;;;4.05;63.07;98938.81;4993754;28;20129;-62
2023/10/10 03:05:20;;;;;;;1.80;1.70;;;;;;;3.93;63.55;98931.72;4993850;28;20026;-60
2023/10/10 03:07:51;;;;;;;1.77;1.67;;;;;;;4.02;63.39;98941.69;4993576;28;20331;-61
2023/10/10 03:10:37;;;;;;;2.00;1.90;;;;;;;3.97;63.33;98935.84;4993869;28;20030;-61
2023/10/10 03:13:13;;;;;;;2.47;1.88;;;;;;;3.97;63.24;98951.75;4987887;28;20098;-61
2023/10/10 03:15:49;;;;;;;1.70;1.60;;;;;;;3.90;63.81;98950.47;4973400;28;20046;-61
2023/10/10 03:18:28;;;;;;;1.70;1.60;;;;;;;3.70;63.53;98934.94;4973828;28;20046;-61
2023/10/10 03:23:52;;;;;;;1.77;1.67;;;;;;;3.92;63.67;98967.94;4993012;28;20034;-59
2023/10/10 03:26:32;;;;;;;1.88;1.77;;;;;;;3.96;63.35;98972.06;4993508;28;20053;-61
2023/10/10 03:29:04;;;;;;;1.50;1.40;;;;;;;3.96;63.49;98964.13;4991727;28;20468;-61
2023/10/10 03:31:42;;;;;;;1.70;1.60;;;;;;;3.95;63.37;98964.25;4992915;28;20062;-61
2023/10/10 03:37:00;;;;;;;2.05;1.70;;;;;;;3.84;63.36;98955.22;4993212;28;20030;-59
2023/10/10 03:39:53;;;;;;;1.75;1.58;;;;;;;3.93;63.84;98979.41;4993137;28;20030;-62
2023/10/10 05:23:58;;;;;;;2.58;1.80;;;;;;;4.44;64.10;99088.13;4994183;28;20032;-61
2023/10/10 05:26:24;;;;;;;2.00;1.90;;;;;;;4.43;64.29;99097.03;4995380;28;20132;-62
2023/10/10 05:28:50;;;;;;;2.00;1.80;;;;;;;4.43;64.94;99094.38;4994360;28;20109;-61
2023/10/10 05:31:21;;;;;;;2.15;1.85;;;;;;;4.37;64.28;99097.47;4994371;28;20092;-61
2023/10/10 05:33:50;;;;;;;3.67;2.05;;;;;;;4.04;64.29;99058.97;4995544;28;20030;-61
2023/10/10 05:36:18;;;;;;;2.15;1.90;;;;;;;4.30;65.30;99099.66;4994931;28;20058;-62
2023/10/10 05:38:45;;;;;;;2.35;1.80;;;;;;;4.30;65.37;99107.59;4984004;28;20034;-62
2023/10/10 05:41:12;;;;;;;2.20;2.00;;;;;;;4.28;64.74;99113.94;4975571;28;20073;-62
2023/10/10 05:43:39;;;;;;;2.58;2.38;;;;;;;4.31;65.47;99117.25;4975591;28;20465;-62
2023/10/10 05:46:05;;;;;;;3.17;1.98;;;;;;;4.35;65.06;99112.59;4976163;28;20122;-62
2023/10/10 05:48:31;;;;;;;2.22;2.03;;;;;;;4.35;64.50;99117.91;4975082;28;20030;-63
2023/10/10 05:51:01;;;;;;;2.10;1.88;;;;;;;4.35;64.28;99115.25;4975908;28;20081;-63
2023/10/10 05:53:27;;;;;;;2.05;1.85;;;;;;;4.36;64.12;99109.00;4975302;28;20066;-60
2023/10/10 05:55:58;;;;;;;1.80;1.70;;;;;;;4.48;63.71;99128.53;4974789;28;20105;-62
2023/10/10 05:58:26;;;;;;;4.07;2.13;;;;;;;4.42;63.45;99128.94;4974864;28;20426;-62
2023/10/10 06:00:53;;;;;;;2.20;2.00;;;;;;;4.42;63.40;99128.94;4976205;28;20469;-63
2023/10/10 06:03:21;;;;;;;5.15;2.20;;;;;;;4.40;63.26;99121.09;4975037;28;20027;-62
2023/10/10 06:05:49;;;;;;;2.90;2.13;;;;;;;4.46;63.62;99133.06;4974752;28;20049;-61
2023/10/10 06:08:15;;;;;;;2.17;1.88;;;;;;;4.51;64.00;99140.72;4976470;28;20018;-61
2023/10/10 06:10:41;;;;;;;2.42;1.95;;;;;;;4.51;63.55;99146.03;4975068;28;20039;-61
2023/10/10 06:13:07;;;;;;;6.15;2.10;;;;;;;4.50;63.69;99141.69;4980712;28;20108;-63
2023/10/10 06:15:34;;;;;;;2.20;1.92;;;;;;;4.51;63.38;99146.91;4984701;28;20424;-62
2023/10/10 06:18:11;;;;;;;2.53;1.75;;;;;;;4.54;63.31;99148.47;4992134;28;20372;-66
2023/10/10 06:20:45;;;;;;;2.20;1.58;;;;;;;4.59;62.42;99138.44;4993695;28;20053;-62
2023/10/10 06:23:14;;;;;;;2.15;1.92;;;;;;;4.49;62.15;99147.94;4991989;28;20088;-63
2023/10/10 06:25:40;;;;;;;3.95;1.80;;;;;;;4.41;63.01;99151.09;4975667;28;20035;-65
2023/10/10 06:28:18;;;;;;;6.88;1.83;;;;;;;4.53;62.45;99160.91;4973376;28;20031;-64
2023/10/10 06:30:45;;;;;;;2.08;1.80;;;;;;;4.51;62.42;99143.38;4973286;28;20136;-65
2023/10/10 06:33:15;;;;;;;2.00;1.80;;;;;;;4.43;61.52;99155.34;4974234;28;20089;-65
2023/10/10 06:35:51;;;;;;;1.88;1.77;;;;;;;4.33;62.74;99158.69;4973352;28;20031;-66
2023/10/10 06:38:17;;;;;;;2.35;1.80;;;;;;;4.33;63.01;99164.84;4973431;28;20085;-61
2023/10/10 06:40:52;;;;;;;2.08;1.90;;;;;;;4.40;63.58;99162.66;4985991;28;20061;-65
2023/10/10 06:43:24;;;;;;;;;;;;;;;4.85;62.48;99167.66;4993988;28;20038;-63
2023/10/10 06:45:54;;;;;;;3.22;1.58;;;;;;;4.68;61.74;99164.31;4993516;28;19972;-65
2023/10/10 06:48:21;;;;;;;1.70;1.55;;;;;;;4.56;62.13;99163.34;4993332;28;20052;-66
2023/10/10 06:50:50;;;;;;;2.42;1.88;;;;;;;4.65;62.80;99184.88;4992093;28;20350;-63
2023/10/10 06:53:35;;;;;;;3.08;1.70;;;;;;;4.66;62.27;99165.38;4993469;28;20409;-62
2023/10/10 06:56:14;;;;;;;2.25;1.70;;;;;;;4.74;62.13;99185.13;4988784;28;20456;-61
2023/10/10 06:58:43;;;;;;;1.77;1.65;;;;;;;4.68;61.68;99180.22;4987228;28;20038;-62
2023/10/10 07:01:11;;;;;;;1.75;1.65;;;;;;;4.64;62.38;99184.03;4977736;28;20035;-63
2023/10/10 07:03:39;;;;;;;3.00;1.60;;;;;;;4.72;62.50;99192.34;4976146;28;20066;-63
2023/10/10 07:06:08;;;;;;;6.30;1.85;;;;;;;4.80;61.31;99188.31;4976556;28;20347;-62
2023/10/10 07:08:35;;;;;;;5.00;2.20;;;;;;;4.68;61.91;99187.31;4974126;28;20035;-61
2023/10/10 07:11:01;;;;;;;2.25;1.98;;;;;;;4.62;62.19;99193.03;4974321;28;20101;-61
2023/10/10 07:13:30;;;;;;;3.95;2.20;;;;;;;4.41;62.31;99162.56;4973581;28;20062;-62
2023/10/10 07:15:56;;;;;;;3.20;2.10;;;;;;;4.58;62.57;99197.69;4980495;28;20136;-63
2023/10/10 07:18:23;;;;;;;2.30;2.10;;;;;;;4.48;62.54;99184.22;4983626;28;20034;-63
2023/10/10 07:21:18;;;;;;;2.47;2.28;;;;;;;4.53;62.85;99198.00;4972073;28;20034;-63
2023/10/10 07:26:30;;;;;;;2.95;2.20;;;;;;;4.45;62.90;99201.16;4993203;28;20041;-62
2023/10/10 07:28:57;;;;;;;2.42;2.00;;;;;;;4.49;63.47;99198.31;4993230;28;20030;-62
2023/10/10 07:31:24;;;;;;;2.40;2.13;;;;;;;4.64;62.26;99209.69;4992916;28;20069;-61
2023/10/10 07:34:15;;;;;;;2.92;2.20;;;;;;;4.67;62.82;99205.06;4992711;28;20437;-61
2023/10/10 07:36:43;;;;;;;2.35;2.13;;;;;;;4.51;62.57;99178.72;4991427;28;20327;-65
2023/10/10 07:41:57;;;;;;;2.88;2.38;;;;;;;4.80;61.90;99220.13;4992687;28;20038;-65
2023/10/10 07:44:23;;;;;;;3.30;2.20;;;;;;;4.83;62.39;99218.13;4992848;28;20026;-66
2023/10/10 07:49:33;;;;;;;3.58;2.20;;;;;;;5.05;60.69;99215.84;4975045;28;20035;-68
2023/10/10 07:52:02;;;;;;;3.25;2.35;;;;;;;5.07;61.25;99222.75;4973054;28;20029;-67
2023/10/10 07:54:31;;;;;;;3.30;2.28;;;;;;;5.16;61.60;99229.25;4973206;28;20037;-67
2023/10/10 07:57:03;;;;;;;5.00;2.13;;;;;;;5.34;60.57;99223.66;4973601;28;20039;-66
2023/10/10 07:59:28;;;;;;;2.47;2.28;;;;;;;5.07;60.90;99184.78;4973972;28;20158;-66
2023/10/10 08:01:56;;;;;;;4.00;2.20;;;;;;;5.24;61.26;99200.38;4972304;28;20174;-67
2023/10/10 08:04:22;;;;;;;2.47;2.10;;;;;;;5.46;60.71;99221.00;4972709;28;20062;-67
2023/10/10 08:06:48;;;;;;;5.32;2.60;;;;;;;5.63;59.71;99231.41;4972930;28;20077;-68
2023/10/10 08:11:46;;;;;;;2.63;1.98;;;;;;;5.59;60.18;99234.28;4973521;28;20027;-66
2023/10/10 08:14:13;;;;;;;3.92;2.10;;;;;;;5.68;59.61;99238.09;4973433;28;20039;-66
2023/10/10 08:16:40;;;;;;;2.53;2.20;;;;;;;5.77;59.40;99247.19;4973795;28;20066;-68
2023/10/10 08:19:11;;;;;;;2.30;2.03;;;;;;;5.83;59.66;99244.13;4973620;28;20043;-67
2023/10/10 08:21:38;;;;;;;3.03;2.30;;;;;;;5.88;59.44;99244.66;4973767;28;20038;-66
2023/10/10 08:24:07;;;;;;;2.63;2.05;;;;;;;5.90;59.03;99255.16;4972849;28;20065;-67
2023/10/10 08:26:39;;;;;;;3.60;1.88;;;;;;;5.74;58.74;99215.53;4974177;28;20117;-67
2023/10/10 08:29:08;;;;;;;3.45;1.95;;;;;;;6.07;58.65;99253.16;4977660;28;20060;-67
2023/10/10 08:31:39;;;;;;;3.60;1.90;;;;;;;5.89;58.28;99209.16;4976511;28;20082;-67
2023/10/10 08:34:08;;;;;;;4.03;2.10;;;;;;;6.14;57.78;99259.72;4960413;28;20031;-67
2023/10/10 08:36:34;;;;;;;3.13;2.20;;;;;;;6.12;57.63;99261.63;4976455;28;20064;-67
2023/10/10 08:41:42;;;;;;;3.35;2.13;;;;;;;6.25;57.91;99256.28;4976092;28;20373;-68
2023/10/10 08:44:09;;;;;;;3.42;2.13;;;;;;;6.32;57.07;99257.56;4977311;28;20082;-67
2023/10/10 08:46:45;;;;;;;3.25;2.05;;;;;;;6.41;57.65;99267.53;4976074;28;20093;-67
2023/10/10 08:49:12;;;;;;;2.47;2.25;;;;;;;6.50;57.22;99266.00;4977105;28;20022;-67
2023/10/10 08:51:39;;;;;;;3.03;2.22;;;;;;;6.67;56.82;99267.44;4976282;28;20031;-67
2023/10/10 08:54:09;;;;;;;2.22;2.03;;;;;;;6.70;56.84;99271.69;4977014;28;20141;-67
2023/10/10 08:56:37;;;;;;;2.78;2.03;;;;;;;6.64;56.40;99278.31;4977502;28;20496;-66
2023/10/10 08:59:08;;;;;;;2.15;1.95;;;;;;;6.49;56.67;99282.94;4977569;28;20062;-67
2023/10/10 09:01:35;;;;;;;4.15;1.85;;;;;;;6.36;56.49;99277.66;4976504;28;20425;-67
2023/10/10 09:04:03;;;;;;;2.92;2.00;;;;;;;6.32;56.89;99281.50;4975513;28;20377;-68
2023/10/10 09:07:20;;;;;;;2.97;2.05;;;;;;;6.31;56.97;99275.31;4976941;28;20079;-68
2023/10/10 09:09:39;;;;;;;2.08;1.80;;;;;;;6.33;56.65;99293.84;4973547;28;20362;-67
2023/10/10 09:12:13;;;;;;;3.78;1.80;;;;;;;6.20;57.32;99295.66;4976485;28;20126;-68
2023/10/10 09:14:41;;;;;;;3.05;2.03;;;;;;;6.07;57.54;99280.59;4977230;28;20034;-68
2023/10/10 09:17:28;;;;;;;3.45;1.83;;;;;;;6.16;57.56;99301.19;4975451;28;20484;-67
2023/10/10 09:19:57;;;;;;;2.20;1.65;;;;;;;6.21;57.64;99292.03;4975407;28;20042;-68
2023/10/10 09:22:42;;;;;;;2.60;1.85;;;;;;;6.38;57.04;99301.47;4976609;28;20038;-67
2023/10/10 09:28:15;;;;;;;3.42;2.30;;;;;;;6.51;57.01;99304.94;4976159;28;20035;-68
2023/10/10 09:30:49;;;;;;;3.90;1.80;;;;;;;6.56;55.91;99312.59;4975689;28;20038;-68
2023/10/10 09:33:23;;;;;;;2.33;1.48;;;;;;;6.41;55.44;99312.72;4975565;28;20426;-66
2023/10/10 09:36:08;;;;;;;4.35;1.70;;;;;;;6.42;56.11;99303.78;4983821;28;20042;-65
2023/10/10 09:38:48;;;;;;;4.55;1.77;;;;;;;6.43;55.81;99305.50;4986287;28;20108;-67
2023/10/10 09:41:37;;;;;;;2.60;1.60;;;;;;;6.47;55.98;99312.28;4993629;28;20052;-67
2023/10/10 09:58:00;;;;;;;4.47;1.90;;;;;;;7.49;53.54;99320.91;4974880;28;20073;-65
2023/10/10 10:06:05;;;;;;;1.65;1.50;;;;;;;7.72;52.20;99311.16;4974888;28;20454;-65
2023/10/10 10:08:42;;;;;;;4.30;1.52;;;;;;;7.72;51.47;99305.81;4978624;28;20049;-65
2023/10/10 10:11:16;;;;;;;1.35;1.15;;;;;;;7.84;51.39;99317.34;4994785;28;20030;-67
2023/10/10 10:14:00;;;;;;;2.47;1.58;;;;;;;7.94;51.29;99326.31;4994683;28;20065;-65
2023/10/10 10:16:44;;;;;;;1.67;1.40;;;;;;;7.94;50.78;99312.13;4985772;28;20109;-65
2023/10/10 10:19:17;;;;;;;4.10;1.55;;;;;;;7.87;51.11;99330.44;4981525;28;20114;-65
2023/10/10 10:21:53;;;;;;;2.13;1.38;;;;;;;7.84;50.91;99320.84;4986097;28;20517;-63
2023/10/10 10:24:29;;;;;;;4.78;1.70;;;;;;;7.90;51.26;99327.53;4982211;28;20037;-63
2023/10/10 10:30:07;;;;;;;3.22;1.88;;;;;;;7.82;51.14;99327.25;4984642;28;20086;-64
2023/10/10 10:32:35;;;;;;;1.75;1.42;;;;;;;7.91;50.71;99326.56;4984955;28;20131;-64
2023/10/10 10:35:08;;;;;;;2.63;1.70;;;;;;;7.92;50.38;99336.25;4963371;28;20038;-66
2023/10/10 10:37:35;;;;;;;4.07;1.67;;;;;;;7.87;50.79;99330.44;4984830;28;20030;-63
2023/10/10 10:42:52;;;;;;;2.13;1.60;;;;;;;8.05;50.98;99341.47;4989744;28;20557;-63
2023/10/10 10:45:34;;;;;;;2.70;1.40;;;;;;;8.11;50.34;99337.50;4993958;28;20109;-63
2023/10/10 10:48:06;;;;;;;1.63;1.50;;;;;;;8.19;50.20;99351.91;4992598;28;20085;-63
2023/10/10 10:50:45;;;;;;;2.63;1.80;;;;;;;8.26;49.49;99341.59;4992322;28;20035;-64
2023/10/10 10:53:50;;;;;;;3.50;1.60;;;;;;;8.52;49.34;99353.91;4990141;28;20121;-66
2023/10/10 11:01:22;;;;;;;2.13;1.63;;;;;;;8.36;48.92;99349.72;4977275;28;20031;-66
2023/10/10 11:03:51;;;;;;;2.75;1.17;;;;;;;8.08;48.72;99351.91;4974110;28;20060;-64
2023/10/10 11:06:20;;;;;;;3.03;1.60;;;;;;;7.79;49.67;99359.47;4957138;28;20030;-65
2023/10/10 11:13:54;;;;;;;1.85;1.40;;;;;;;7.90;49.39;99363.03;4981629;28;20030;-64
2023/10/10 11:16:36;;;;;;;1.95;1.13;;;;;;;7.98;48.23;99364.25;4981602;28;20431;-66
2023/10/10 11:19:12;;;;;;;3.42;1.15;;;;;;;8.05;48.33;99365.47;4973779;28;20054;-63
2023/10/10 11:21:47;;;;;;;1.50;0.90;;;;;;;8.05;47.69;99360.16;4981291;28;20104;-66
2023/10/10 11:24:14;;;;;;;2.30;1.33;;;;;;;8.10;48.07;99375.78;4992878;28;20030;-65
2023/10/10 11:26:40;;;;;;;2.60;1.30;;;;;;;7.92;48.48;99370.91;4975096;28;20133;-66
2023/10/10 11:29:29;;;;;;;1.83;1.30;;;;;;;7.91;49.19;99395.88;4973703;28;20438;-65
2023/10/10 11:32:08;;;;;;;1.92;1.33;;;;;;;7.65;49.55;99368.53;4973603;28;20038;-66
2023/10/10 11:34:46;;;;;;;3.83;1.40;;;;;;;7.66;50.02;99386.22;4974529;28;20050;-64
2023/10/10 11:37:20;;;;;;;1.67;1.33;;;;;;;7.44;49.64;99372.72;4979306;28;20454;-64
2023/10/10 11:39:47;;;;;;;3.53;1.20;;;;;;;7.44;49.90;99393.16;4973308;28;20061;-64
2023/10/10 11:42:35;;;;;;;2.20;1.80;;;;;;;7.41;50.76;99410.22;4979062;28;20469;-65
2023/10/10 11:45:05;;;;;;;1.40;1.27;;;;;;;6.97;51.96;99415.16;4974105;28;20035;-66
2023/10/10 11:47:42;;;;;;;3.47;1.60;;;;;;;6.74;53.15;99412.34;4973308;28;20050;-66
2023/10/10 11:50:12;;;;;;;2.75;1.80;;;;;;;6.54;54.00;99418.25;4973371;28;20042;-66
2023/10/10 11:52:56;;;;;;;6.75;1.90;;;;;;;6.55;54.82;99422.63;4972760;28;20525;-65
2023/10/10 11:55:28;;;;;;;2.70;1.70;;;;;;;6.30;55.34;99425.16;4972507;28;20421;-66
2023/10/10 11:58:07;;;;;;;1.95;1.50;;;;;;;6.07;55.75;99417.94;4973681;28;20041;-65
2023/10/10 12:00:42;;;;;;;2.10;1.60;;;;;;;5.78;56.08;99404.78;4973057;28;20491;-67
2023/10/10 12:03:10;;;;;;;3.13;1.70;;;;;;;5.83;56.74;99432.75;4976491;28;20045;-66
2023/10/10 12:05:37;;;;;;;3.40;2.28;;;;;;;5.80;56.48;99430.31;4977083;28;20111;-64
2023/10/10 12:08:07;;;;;;;6.50;4.90;;;;;;;5.85;57.36;99429.97;4978955;28;20030;-64
2023/10/10 12:10:47;;;;;;;3.00;2.22;;;;;;;6.03;55.88;99443.88;4979762;28;20512;-63
2023/10/10 12:16:11;;;;;;;2.63;1.30;;;;;;;6.30;55.41;99445.59;4979253;28;20050;-64
2023/10/10 12:18:45;;;;;;;1.75;1.25;;;;;;;6.11;56.19;99414.09;4996093;28;20066;-65
2023/10/10 12:21:15;;;;;;;2.10;1.10;;;;;;;6.22;56.55;99469.19;4993401;28;20027;-63
2023/10/10 12:23:41;;;;;;;2.20;1.00;;;;;;;5.98;56.35;99464.53;4991300;28;20030;-66
2023/10/10 12:26:10;;;;;;;1.83;0.95;;;;;;;5.75;57.54;99458.97;4978769;28;20034;-65
2023/10/10 12:28:36;;;;;;;1.88;1.20;;;;;;;5.75;57.66;99466.94;4992684;28;20062;-65
2023/10/10 12:31:04;;;;;;;2.55;1.25;;;;;;;5.84;57.96;99481.41;4980073;28;20022;-63
2023/10/10 12:33:31;;;;;;;1.10;0.90;;;;;;;5.94;57.62;99484.31;4976719;28;20038;-65
2023/10/10 12:35:56;;;;;;;3.70;0.95;;;;;;;6.07;56.98;99481.72;4980301;28;20043;-64
2023/10/10 12:38:23;;;;;;;2.28;1.00;;;;;;;6.17;56.71;99483.66;4980122;28;20120;-66
2023/10/10 12:40:53;;;;;;;2.83;1.20;;;;;;;6.25;56.69;99480.47;4979222;28;20049;-65
2023/10/10 12:43:20;;;;;;;5.50;1.38;;;;;;;6.24;56.47;99485.88;4978705;28;20041;-64
2023/10/10 12:45:47;;;;;;;1.15;1.00;;;;;;;6.21;56.62;99486.09;4976219;28;20035;-66
2023/10/10 12:48:14;;;;;;;3.15;1.52;;;;;;;6.18;56.94;99485.34;4976910;28;20462;-66
2023/10/10 12:50:46;;;;;;;4.72;1.50;;;;;;;5.96;56.72;99453.16;4976074;28;20092;-63
2023/10/10 12:53:15;;;;;;;1.85;1.10;;;;;;;6.21;56.56;99478.13;4978807;28;20033;-65
2023/10/10 12:55:52;;;;;;;4.20;1.38;;;;;;;6.16;56.50;99500.56;4976662;28;20520;-65
2023/10/10 12:58:24;;;;;;;3.42;1.38;;;;;;;6.14;57.04;99481.19;4983123;28;20045;-65
2023/10/10 13:00:53;;;;;;;2.13;1.30;;;;;;;6.22;56.71;99503.75;4993475;28;20489;-64
2023/10/10 13:03:23;;;;;;;1.45;1.30;;;;;;;6.17;56.96;99493.44;4995597;28;20072;-64
2023/10/10 13:05:55;;;;;;;1.58;1.48;;;;;;;6.11;57.12;99497.34;4995193;28;20167;-62
2023/10/10 13:08:24;;;;;;;3.03;1.50;;;;;;;5.94;56.82;99501.13;4975263;28;20121;-62
2023/10/10 13:10:56;;;;;;;2.08;1.50;;;;;;;5.74;57.46;99516.56;4994515;28;20101;-63
2023/10/10 13:13:45;;;;;;;2.28;1.60;;;;;;;5.59;58.11;99514.91;4988990;28;20458;-65
2023/10/10 13:18:56;;;;;;;2.28;1.60;;;;;;;5.44;58.50;99522.06;4979567;28;20057;-63
2023/10/10 13:21:23;;;;;;;4.18;1.63;;;;;;;5.41;58.30;99520.44;4961098;28;20101;-63
2023/10/10 13:23:50;;;;;;;2.70;1.70;;;;;;;5.43;58.84;99530.97;4987517;28;20141;-66
2023/10/10 13:26:17;;;;;;;3.78;1.60;;;;;;;5.39;58.04;99529.47;4982436;28;20429;-62
2023/10/10 13:28:46;;;;;;;2.65;1.20;;;;;;;5.47;57.58;99532.47;4988710;28;20046;-70
2023/10/10 13:31:16;;;;;;;3.88;1.38;;;;;;;5.59;57.09;99533.50;4972988;28;20502;-71
2023/10/10 13:33:43;;;;;;;3.65;1.30;;;;;;;5.49;56.53;99540.38;4974270;28;20054;-70
2023/10/10 13:36:11;;;;;;;2.55;1.13;;;;;;;5.46;56.30;99541.41;4972829;28;20034;-71
2023/10/10 13:38:48;;;;;;;3.63;1.70;;;;;;;5.42;56.40;99539.91;4972970;28;20027;-71
2023/10/10 13:41:22;;;;;;;1.55;1.20;;;;;;;5.25;56.63;99546.28;4972423;28;20042;-68
2023/10/10 13:43:51;;;;;;;2.10;1.20;;;;;;;5.15;56.59;99553.97;4974009;28;20050;-70
2023/10/10 13:46:22;;;;;;;2.17;1.10;;;;;;;5.12;56.82;99549.69;4975473;28;20031;-65
2023/10/10 13:48:48;;;;;;;3.00;1.30;;;;;;;5.12;56.99;99551.50;4975072;28;20046;-67
2023/10/10 13:51:15;;;;;;;1.92;1.30;;;;;;;5.20;56.38;99562.50;4975619;28;20030;-67
2023/10/10 13:53:43;;;;;;;1.55;1.10;;;;;;;4.82;55.94;99510.84;4985636;28;20049;-69
2023/10/10 13:56:10;;;;;;;1.75;1.40;;;;;;;5.13;56.42;99569.13;4981567;28;20035;-67
2023/10/10 13:58:37;;;;;;;1.80;1.15;;;;;;;5.20;56.22;99569.63;4975021;28;20038;-67
2023/10/10 14:01:25;;;;;;;2.03;1.55;;;;;;;5.00;55.83;99530.09;4974856;28;20382;-67
2023/10/10 14:04:03;;;;;;;4.95;1.30;;;;;;;5.16;55.98;99567.13;4975144;28;20045;-67
2023/10/10 14:06:45;;;;;;;3.05;1.40;;;;;;;5.16;55.69;99572.44;4978206;28;20459;-66
2023/10/10 14:09:11;;;;;;;2.33;1.85;;;;;;;5.15;55.92;99573.38;4974724;28;20046;-67
2023/10/10 14:11:38;;;;;;;1.58;1.10;;;;;;;5.06;56.15;99581.91;4978792;28;20030;-67
2023/10/10 14:14:06;;;;;;;1.73;1.23;;;;;;;4.97;56.46;99593.13;4994058;28;20404;-66
2023/10/10 14:16:32;;;;;;;5.10;1.30;;;;;;;4.88;57.10;99578.59;4993876;28;20046;-64
2023/10/10 14:19:01;;;;;;;2.58;1.38;;;;;;;4.90;57.04;99595.28;4982145;28;20112;-60
2023/10/10 14:21:27;;;;;;;1.63;1.33;;;;;;;4.85;56.59;99605.31;4974936;28;20034;-61
2023/10/10 14:24:12;;;;;;;3.25;1.40;;;;;;;4.87;56.94;99614.03;4991180;28;20030;-62
2023/10/10 14:26:48;;;;;;;2.97;1.30;;;;;;;4.85;57.29;99622.06;4983370;28;20038;-59
2023/10/10 14:29:14;;;;;;;;;;;;;;;5.14;56.93;99622.09;4994691;28;20042;-63
2023/10/10 14:31:43;;;;;;;;;;;;;;;5.14;56.34;99616.78;4993726;28;19914;-63
2023/10/10 14:34:15;;;;;;;1.95;1.15;;;;;;;4.82;56.57;99626.69;4989471;28;20363;-60
2023/10/10 14:36:41;;;;;;;3.45;1.58;;;;;;;4.60;56.43;99631.50;4988157;28;20057;-62
2023/10/10 14:39:27;;;;;;;8.82;2.72;;;;;;;4.49;57.33;99630.41;4982260;28;20038;-62
2023/10/10 14:41:57;;;;;;;5.43;3.17;;;;;;;4.41;57.45;99642.34;4987150;28;20064;-61
2023/10/10 14:44:28;;;;;;;5.95;2.90;;;;;;;4.25;58.31;99633.56;4985386;28;20022;-59
2023/10/10 14:46:54;;;;;;;6.22;1.90;;;;;;;3.92;58.67;99610.69;4987582;28;20105;-64
2023/10/10 14:49:28;;;;;;;2.53;2.08;;;;;;;4.09;58.67;99652.97;4979082;28;20427;-64
2023/10/10 14:52:04;;;;;;;2.65;1.90;;;;;;;4.16;59.21;99657.00;4974210;28;20513;-63
2023/10/10 14:54:30;;;;;;;;;;;;;;;4.38;58.67;99660.19;4977843;28;20026;-63
2023/10/10 14:56:56;;;;;;;3.08;1.45;;;;;;;4.19;58.25;99665.72;4988372;28;19917;-65
2023/10/10 14:59:31;;;;;;;3.78;1.50;;;;;;;4.01;58.88;99663.16;4992145;28;20033;-62
2023/10/10 15:02:05;;;;;;;4.18;1.20;;;;;;;3.95;59.30;99674.94;4977575;28;20437;-61
2023/10/10 15:04:33;;;;;;;;;;;;;;;4.24;58.82;99683.06;4993322;28;20373;-62
2023/10/10 15:07:00;;;;;;;2.38;1.50;;;;;;;3.99;59.23;99683.56;4991385;28;19914;-63